sensor_id;sensor_type;location;lat;lon;timestamp;pressure;altitude;pressure_sealevel;temperature;humidity
61805;BME280;47725;47.912;7.356;2022-08-21T00:00:50;99420.11;;;21.20;61.87
61805;BME280;47725;47.912;7.356;2022-08-21T00:04:50;99417.81;;;21.15;61.82
61805;BME280;47725;47.912;7.356;2022-08-21T00:08:51;99415.28;;;21.10;61.97
61805;BME280;47725;47.912;7.356;2022-08-21T00:12:50;99413.45;;;21.04;61.96
61805;BME280;47725;47.912;7.356;2022-08-21T00:16:50;99410.77;;;21.00;61.84
61805;BME280;47725;47.912;7.356;2022-08-21T00:20:50;99407.54;;;20.98;61.30
61805;BME280;47725;47.912;7.356;2022-08-21T00:24:50;99405.42;;;20.96;61.28
61805;BME280;47725;47.912;7.356;2022-08-21T00:28:50;99404.30;;;20.92;61.42
61805;BME280;47725;47.912;7.356;2022-08-21T00:32:50;99403.23;;;20.87;61.28
61805;BME280;47725;47.912;7.356;2022-08-21T00:36:50;99401.28;;;20.81;61.40
61805;BME280;47725;47.912;7.356;2022-08-21T00:40:51;99399.61;;;20.74;61.56
61805;BME280;47725;47.912;7.356;2022-08-21T00:44:50;99397.67;;;20.67;61.75
61805;BME280;47725;47.912;7.356;2022-08-21T00:48:50;99396.21;;;20.61;61.77
61805;BME280;47725;47.912;7.356;2022-08-21T00:52:50;99394.70;;;20.56;62.03
61805;BME280;47725;47.912;7.356;2022-08-21T00:56:56;99393.19;;;20.52;62.18
61805;BME280;47725;47.912;7.356;2022-08-21T01:00:50;99391.97;;;20.48;62.26
61805;BME280;47725;47.912;7.356;2022-08-21T01:04:50;99391.96;;;20.45;62.08
61805;BME280;47725;47.912;7.356;2022-08-21T01:08:50;99390.67;;;20.42;62.39
61805;BME280;47725;47.912;7.356;2022-08-21T01:12:53;99389.51;;;20.39;62.44
61805;BME280;47725;47.912;7.356;2022-08-21T01:16:51;99387.69;;;20.35;62.38
61805;BME280;47725;47.912;7.356;2022-08-21T01:24:50;99384.55;;;20.27;62.83
61805;BME280;47725;47.912;7.356;2022-08-21T01:29:02;99382.78;;;20.24;62.74
61805;BME280;47725;47.912;7.356;2022-08-21T01:32:50;99381.69;;;20.20;62.79
61805;BME280;47725;47.912;7.356;2022-08-21T01:36:50;99379.97;;;20.17;62.90
61805;BME280;47725;47.912;7.356;2022-08-21T01:40:50;99379.24;;;20.13;62.98
61805;BME280;47725;47.912;7.356;2022-08-21T01:44:50;99379.12;;;20.08;63.27
61805;BME280;47725;47.912;7.356;2022-08-21T01:48:50;99378.81;;;20.05;63.43
61805;BME280;47725;47.912;7.356;2022-08-21T01:52:50;99378.66;;;20.01;63.32
61805;BME280;47725;47.912;7.356;2022-08-21T01:56:51;99378.33;;;20.00;63.14
61805;BME280;47725;47.912;7.356;2022-08-21T02:00:50;99377.98;;;19.97;63.03
61805;BME280;47725;47.912;7.356;2022-08-21T02:04:50;99378.72;;;19.93;62.80
61805;BME280;47725;47.912;7.356;2022-08-21T02:08:50;99379.24;;;19.88;63.25
61805;BME280;47725;47.912;7.356;2022-08-21T02:12:50;99379.53;;;19.81;63.50
61805;BME280;47725;47.912;7.356;2022-08-21T02:16:50;99378.45;;;19.74;63.29
61805;BME280;47725;47.912;7.356;2022-08-21T02:20:50;99377.03;;;19.69;63.38
61805;BME280;47725;47.912;7.356;2022-08-21T02:24:50;99375.30;;;19.64;63.30
61805;BME280;47725;47.912;7.356;2022-08-21T02:28:50;99374.45;;;19.61;63.37
61805;BME280;47725;47.912;7.356;2022-08-21T02:32:50;99372.02;;;19.57;63.42
61805;BME280;47725;47.912;7.356;2022-08-21T02:36:50;99371.00;;;19.55;63.18
61805;BME280;47725;47.912;7.356;2022-08-21T02:40:50;99369.00;;;19.52;63.13
61805;BME280;47725;47.912;7.356;2022-08-21T02:44:50;99367.86;;;19.48;63.18
61805;BME280;47725;47.912;7.356;2022-08-21T02:48:50;99366.46;;;19.43;63.28
61805;BME280;47725;47.912;7.356;2022-08-21T02:52:50;99366.00;;;19.39;63.28
61805;BME280;47725;47.912;7.356;2022-08-21T02:56:50;99365.11;;;19.35;63.41
61805;BME280;47725;47.912;7.356;2022-08-21T03:00:50;99364.28;;;19.32;63.29
61805;BME280;47725;47.912;7.356;2022-08-21T03:04:50;99364.35;;;19.30;63.09
61805;BME280;47725;47.912;7.356;2022-08-21T03:08:50;99364.67;;;19.27;63.10
61805;BME280;47725;47.912;7.356;2022-08-21T03:12:50;99365.00;;;19.23;63.31
61805;BME280;47725;47.912;7.356;2022-08-21T03:16:50;99365.47;;;19.19;63.38
61805;BME280;47725;47.912;7.356;2022-08-21T03:20:50;99365.29;;;19.16;63.33
61805;BME280;47725;47.912;7.356;2022-08-21T03:24:50;99364.87;;;19.14;63.32
61805;BME280;47725;47.912;7.356;2022-08-21T03:28:50;99364.23;;;19.11;63.14
61805;BME280;47725;47.912;7.356;2022-08-21T03:32:50;99363.56;;;19.07;63.04
61805;BME280;47725;47.912;7.356;2022-08-21T03:36:50;99362.20;;;19.00;63.07
61805;BME280;47725;47.912;7.356;2022-08-21T03:40:50;99360.35;;;18.92;63.14
61805;BME280;47725;47.912;7.356;2022-08-21T03:44:50;99359.71;;;18.84;63.07
61805;BME280;47725;47.912;7.356;2022-08-21T03:48:50;99359.12;;;18.77;63.02
61805;BME280;47725;47.912;7.356;2022-08-21T03:52:50;99358.01;;;18.69;63.07
61805;BME280;47725;47.912;7.356;2022-08-21T03:56:50;99357.28;;;18.62;63.13
61805;BME280;47725;47.912;7.356;2022-08-21T04:00:50;99356.30;;;18.56;63.10
61805;BME280;47725;47.912;7.356;2022-08-21T04:04:50;99355.35;;;18.50;63.01
61805;BME280;47725;47.912;7.356;2022-08-21T04:08:50;99355.31;;;18.46;63.13
61805;BME280;47725;47.912;7.356;2022-08-21T04:12:50;99354.99;;;18.40;63.20
61805;BME280;47725;47.912;7.356;2022-08-21T04:16:50;99355.77;;;18.34;63.49
61805;BME280;47725;47.912;7.356;2022-08-21T04:20:50;99357.92;;;18.29;63.46
61805;BME280;47725;47.912;7.356;2022-08-21T04:24:50;99361.05;;;18.25;63.44
61805;BME280;47725;47.912;7.356;2022-08-21T04:28:50;99363.73;;;18.21;63.55
61805;BME280;47725;47.912;7.356;2022-08-21T04:32:50;99365.99;;;18.18;63.62
61805;BME280;47725;47.912;7.356;2022-08-21T04:36:50;99367.63;;;18.14;63.61
61805;BME280;47725;47.912;7.356;2022-08-21T04:40:50;99368.55;;;18.10;63.84
61805;BME280;47725;47.912;7.356;2022-08-21T04:44:50;99369.56;;;18.07;63.90
61805;BME280;47725;47.912;7.356;2022-08-21T04:48:50;99370.50;;;18.05;63.58
61805;BME280;47725;47.912;7.356;2022-08-21T04:52:50;99371.39;;;18.04;63.71
61805;BME280;47725;47.912;7.356;2022-08-21T04:56:59;99372.96;;;18.02;63.79
61805;BME280;47725;47.912;7.356;2022-08-21T05:00:50;99375.81;;;17.98;63.92
61805;BME280;47725;47.912;7.356;2022-08-21T05:04:51;99378.59;;;17.96;63.91
61805;BME280;47725;47.912;7.356;2022-08-21T05:08:50;99380.85;;;17.93;63.92
61805;BME280;47725;47.912;7.356;2022-08-21T05:12:50;99382.90;;;17.91;64.19
61805;BME280;47725;47.912;7.356;2022-08-21T05:16:50;99383.06;;;17.89;64.25
61805;BME280;47725;47.912;7.356;2022-08-21T05:20:50;99384.67;;;17.89;64.29
61805;BME280;47725;47.912;7.356;2022-08-21T05:24:50;99385.74;;;17.89;64.43
61805;BME280;47725;47.912;7.356;2022-08-21T05:28:50;99386.22;;;17.89;64.27
61805;BME280;47725;47.912;7.356;2022-08-21T05:32:55;99387.05;;;17.89;64.52
61805;BME280;47725;47.912;7.356;2022-08-21T05:36:50;99387.59;;;17.90;64.65
61805;BME280;47725;47.912;7.356;2022-08-21T05:40:50;99387.45;;;17.93;64.37
61805;BME280;47725;47.912;7.356;2022-08-21T05:44:50;99389.04;;;17.97;64.32
61805;BME280;47725;47.912;7.356;2022-08-21T05:48:50;99390.47;;;18.01;64.49
61805;BME280;47725;47.912;7.356;2022-08-21T05:52:50;99390.91;;;18.05;64.58
61805;BME280;47725;47.912;7.356;2022-08-21T05:56:50;99391.66;;;18.08;64.87
61805;BME280;47725;47.912;7.356;2022-08-21T06:00:50;99392.36;;;18.11;64.93
61805;BME280;47725;47.912;7.356;2022-08-21T06:04:50;99392.65;;;18.16;64.96
61805;BME280;47725;47.912;7.356;2022-08-21T06:08:50;99394.67;;;18.22;64.97
61805;BME280;47725;47.912;7.356;2022-08-21T06:12:53;99395.67;;;18.28;64.96
61805;BME280;47725;47.912;7.356;2022-08-21T06:16:50;99396.56;;;18.36;64.92
61805;BME280;47725;47.912;7.356;2022-08-21T06:20:50;99397.74;;;18.44;64.96
61805;BME280;47725;47.912;7.356;2022-08-21T06:24:50;99398.53;;;18.53;64.78
61805;BME280;47725;47.912;7.356;2022-08-21T06:28:50;99398.63;;;18.62;64.70
61805;BME280;47725;47.912;7.356;2022-08-21T06:32:50;99399.63;;;18.71;64.64
61805;BME280;47725;47.912;7.356;2022-08-21T06:36:50;99400.05;;;18.82;64.31
61805;BME280;47725;47.912;7.356;2022-08-21T06:40:50;99398.55;;;18.92;64.33
61805;BME280;47725;47.912;7.356;2022-08-21T06:44:50;99396.64;;;19.02;64.46
61805;BME280;47725;47.912;7.356;2022-08-21T06:48:50;99394.26;;;19.10;64.46
61805;BME280;47725;47.912;7.356;2022-08-21T06:52:50;99390.92;;;19.18;64.55
61805;BME280;47725;47.912;7.356;2022-08-21T06:56:50;99387.76;;;19.27;64.51
61805;BME280;47725;47.912;7.356;2022-08-21T07:00:50;99386.42;;;19.36;64.48
61805;BME280;47725;47.912;7.356;2022-08-21T07:04:50;99385.97;;;19.46;64.32
61805;BME280;47725;47.912;7.356;2022-08-21T07:08:50;99386.67;;;19.56;64.23
61805;BME280;47725;47.912;7.356;2022-08-21T07:12:50;99387.50;;;19.66;64.21
61805;BME280;47725;47.912;7.356;2022-08-21T07:16:50;99388.06;;;19.77;64.19
61805;BME280;47725;47.912;7.356;2022-08-21T07:20:50;99388.81;;;19.88;64.20
61805;BME280;47725;47.912;7.356;2022-08-21T07:24:50;99389.18;;;19.99;64.28
61805;BME280;47725;47.912;7.356;2022-08-21T07:28:50;99389.88;;;20.11;64.03
61805;BME280;47725;47.912;7.356;2022-08-21T07:32:50;99389.29;;;20.22;64.33
61805;BME280;47725;47.912;7.356;2022-08-21T07:36:50;99388.92;;;20.32;64.28
61805;BME280;47725;47.912;7.356;2022-08-21T07:40:50;99388.45;;;20.44;63.95
61805;BME280;47725;47.912;7.356;2022-08-21T07:44:50;99387.64;;;20.57;63.64
61805;BME280;47725;47.912;7.356;2022-08-21T07:48:50;99386.19;;;20.70;63.30
61805;BME280;47725;47.912;7.356;2022-08-21T07:52:50;99385.41;;;20.84;63.53
61805;BME280;47725;47.912;7.356;2022-08-21T07:56:50;99384.78;;;20.98;63.62
61805;BME280;47725;47.912;7.356;2022-08-21T08:00:50;99382.19;;;21.12;62.82
61805;BME280;47725;47.912;7.356;2022-08-21T08:04:49;99379.82;;;21.26;62.53
61805;BME280;47725;47.912;7.356;2022-08-21T08:08:49;99377.59;;;21.39;62.92
61805;BME280;47725;47.912;7.356;2022-08-21T08:12:50;99375.65;;;21.54;61.26
61805;BME280;47725;47.912;7.356;2022-08-21T08:16:49;99372.33;;;21.68;61.30
61805;BME280;47725;47.912;7.356;2022-08-21T08:20:49;99369.83;;;21.82;61.02
61805;BME280;47725;47.912;7.356;2022-08-21T08:24:50;99367.90;;;21.95;60.07
61805;BME280;47725;47.912;7.356;2022-08-21T08:28:49;99367.11;;;22.09;59.73
61805;BME280;47725;47.912;7.356;2022-08-21T08:32:50;99365.53;;;22.22;58.78
61805;BME280;47725;47.912;7.356;2022-08-21T08:36:49;99364.18;;;22.36;57.89
61805;BME280;47725;47.912;7.356;2022-08-21T08:40:58;99364.14;;;22.50;57.02
61805;BME280;47725;47.912;7.356;2022-08-21T08:44:49;99363.53;;;22.64;56.98
61805;BME280;47725;47.912;7.356;2022-08-21T08:48:53;99363.31;;;22.79;56.06
61805;BME280;47725;47.912;7.356;2022-08-21T08:52:54;99361.86;;;22.96;55.11
61805;BME280;47725;47.912;7.356;2022-08-21T08:56:49;99358.75;;;23.12;54.62
61805;BME280;47725;47.912;7.356;2022-08-21T09:00:50;99355.13;;;23.29;54.27
61805;BME280;47725;47.912;7.356;2022-08-21T09:04:50;99350.59;;;23.47;53.47
61805;BME280;47725;47.912;7.356;2022-08-21T09:08:53;99346.66;;;23.66;53.79
61805;BME280;47725;47.912;7.356;2022-08-21T09:12:56;99342.63;;;23.83;52.13
61805;BME280;47725;47.912;7.356;2022-08-21T09:16:53;99338.89;;;24.00;52.36
61805;BME280;47725;47.912;7.356;2022-08-21T09:28:53;99328.44;;;24.45;50.51
61805;BME280;47725;47.912;7.356;2022-08-21T09:32:49;99324.94;;;24.61;49.82
61805;BME280;47725;47.912;7.356;2022-08-21T09:36:50;99319.89;;;24.76;49.82
61805;BME280;47725;47.912;7.356;2022-08-21T09:40:54;99315.70;;;24.90;47.70
61805;BME280;47725;47.912;7.356;2022-08-21T09:45:00;99311.25;;;25.06;48.42
61805;BME280;47725;47.912;7.356;2022-08-21T09:48:50;99308.29;;;25.23;48.22
61805;BME280;47725;47.912;7.356;2022-08-21T09:52:54;99306.69;;;25.40;47.79
61805;BME280;47725;47.912;7.356;2022-08-21T09:56:54;99303.54;;;25.57;46.69
61805;BME280;47725;47.912;7.356;2022-08-21T10:00:59;99301.67;;;25.73;46.15
61805;BME280;47725;47.912;7.356;2022-08-21T10:04:54;99300.33;;;25.90;46.85
61805;BME280;47725;47.912;7.356;2022-08-21T10:08:49;99298.25;;;26.07;45.02
61805;BME280;47725;47.912;7.356;2022-08-21T10:16:57;99295.00;;;26.37;45.09
61805;BME280;47725;47.912;7.356;2022-08-21T10:20:55;99291.28;;;26.52;43.94
61805;BME280;47725;47.912;7.356;2022-08-21T10:28:53;99282.59;;;26.79;42.16
61805;BME280;47725;47.912;7.356;2022-08-21T10:40:53;99273.50;;;27.18;42.38
61805;BME280;47725;47.912;7.356;2022-08-21T10:44:57;99271.23;;;27.31;42.44
61805;BME280;47725;47.912;7.356;2022-08-21T10:48:51;99269.44;;;27.44;42.13
61805;BME280;47725;47.912;7.356;2022-08-21T10:52:56;99267.99;;;27.51;42.88
61805;BME280;47725;47.912;7.356;2022-08-21T10:56:51;99265.20;;;27.56;41.75
61805;BME280;47725;47.912;7.356;2022-08-21T11:00:51;99262.94;;;27.63;41.63
61805;BME280;47725;47.912;7.356;2022-08-21T11:04:52;99260.47;;;27.70;40.34
61805;BME280;47725;47.912;7.356;2022-08-21T11:08:50;99256.80;;;27.78;40.47
61805;BME280;47725;47.912;7.356;2022-08-21T11:12:52;99254.58;;;27.83;39.66
61805;BME280;47725;47.912;7.356;2022-08-21T11:16:52;99250.13;;;27.87;39.97
61805;BME280;47725;47.912;7.356;2022-08-21T11:20:56;99246.08;;;27.92;39.55
61805;BME280;47725;47.912;7.356;2022-08-21T11:25:10;99242.78;;;28.02;39.91
61805;BME280;47725;47.912;7.356;2022-08-21T11:28:54;99238.26;;;28.12;37.93
61805;BME280;47725;47.912;7.356;2022-08-21T11:32:57;99234.88;;;28.23;38.71
61805;BME280;47725;47.912;7.356;2022-08-21T11:36:52;99231.31;;;28.33;38.52
61805;BME280;47725;47.912;7.356;2022-08-21T11:40:57;99226.81;;;28.43;37.17
61805;BME280;47725;47.912;7.356;2022-08-21T11:44:56;99221.53;;;28.53;38.00
61805;BME280;47725;47.912;7.356;2022-08-21T11:52:53;99211.66;;;28.72;35.69
61805;BME280;47725;47.912;7.356;2022-08-21T11:56:54;99207.29;;;28.81;36.93
61805;BME280;47725;47.912;7.356;2022-08-21T12:00:50;99204.16;;;28.90;37.62
61805;BME280;47725;47.912;7.356;2022-08-21T12:04:53;99201.56;;;29.00;36.74
61805;BME280;47725;47.912;7.356;2022-08-21T12:08:56;99200.44;;;29.10;36.32
61805;BME280;47725;47.912;7.356;2022-08-21T12:12:49;99198.80;;;29.19;35.85
61805;BME280;47725;47.912;7.356;2022-08-21T12:16:49;99196.26;;;29.27;35.24
61805;BME280;47725;47.912;7.356;2022-08-21T12:21:00;99194.42;;;29.36;36.03
61805;BME280;47725;47.912;7.356;2022-08-21T12:24:49;99192.13;;;29.43;34.87
61805;BME280;47725;47.912;7.356;2022-08-21T12:28:49;99189.28;;;29.51;34.35
61805;BME280;47725;47.912;7.356;2022-08-21T12:36:53;99184.44;;;29.67;32.98
61805;BME280;47725;47.912;7.356;2022-08-21T12:40:54;99180.24;;;29.73;32.93
61805;BME280;47725;47.912;7.356;2022-08-21T12:44:50;99176.59;;;29.78;33.22
61805;BME280;47725;47.912;7.356;2022-08-21T12:48:51;99174.08;;;29.83;33.64
61805;BME280;47725;47.912;7.356;2022-08-21T12:52:59;99170.01;;;29.88;33.35
61805;BME280;47725;47.912;7.356;2022-08-21T12:56:56;99166.39;;;29.94;33.37
61805;BME280;47725;47.912;7.356;2022-08-21T13:00:50;99163.87;;;30.01;32.60
61805;BME280;47725;47.912;7.356;2022-08-21T13:04:49;99162.41;;;30.07;32.69
61805;BME280;47725;47.912;7.356;2022-08-21T13:08:51;99160.21;;;30.12;32.62
61805;BME280;47725;47.912;7.356;2022-08-21T13:12:49;99158.50;;;30.18;33.01
61805;BME280;47725;47.912;7.356;2022-08-21T13:16:52;99154.28;;;30.24;32.98
61805;BME280;47725;47.912;7.356;2022-08-21T13:20:49;99149.88;;;30.31;32.74
61805;BME280;47725;47.912;7.356;2022-08-21T13:24:49;99145.58;;;30.36;32.47
61805;BME280;47725;47.912;7.356;2022-08-21T13:28:49;99143.04;;;30.42;32.99
61805;BME280;47725;47.912;7.356;2022-08-21T13:32:50;99140.99;;;30.48;32.68
61805;BME280;47725;47.912;7.356;2022-08-21T13:36:51;99138.36;;;30.53;32.48
61805;BME280;47725;47.912;7.356;2022-08-21T13:40:50;99135.54;;;30.58;31.62
61805;BME280;47725;47.912;7.356;2022-08-21T13:44:50;99133.04;;;30.61;32.23
61805;BME280;47725;47.912;7.356;2022-08-21T13:48:49;99130.11;;;30.63;31.46
61805;BME280;47725;47.912;7.356;2022-08-21T13:52:56;99127.94;;;30.65;32.18
61805;BME280;47725;47.912;7.356;2022-08-21T13:56:49;99125.02;;;30.66;31.42
61805;BME280;47725;47.912;7.356;2022-08-21T14:00:49;99121.26;;;30.69;30.86
61805;BME280;47725;47.912;7.356;2022-08-21T14:04:59;99118.52;;;30.71;30.97
61805;BME280;47725;47.912;7.356;2022-08-21T14:12:55;99111.58;;;30.75;30.71
61805;BME280;47725;47.912;7.356;2022-08-21T14:16:53;99108.03;;;30.74;30.47
61805;BME280;47725;47.912;7.356;2022-08-21T14:20:49;99105.19;;;30.73;30.06
61805;BME280;47725;47.912;7.356;2022-08-21T14:24:49;99102.42;;;30.71;31.10
61805;BME280;47725;47.912;7.356;2022-08-21T14:28:49;99100.14;;;30.70;31.61
61805;BME280;47725;47.912;7.356;2022-08-21T14:32:49;99096.28;;;30.70;31.35
61805;BME280;47725;47.912;7.356;2022-08-21T14:36:50;99091.83;;;30.69;30.92
61805;BME280;47725;47.912;7.356;2022-08-21T14:40:50;99088.46;;;30.68;30.80
61805;BME280;47725;47.912;7.356;2022-08-21T14:44:49;99086.28;;;30.66;31.14
61805;BME280;47725;47.912;7.356;2022-08-21T14:48:49;99083.57;;;30.63;31.26
61805;BME280;47725;47.912;7.356;2022-08-21T14:52:49;99080.56;;;30.61;30.43
61805;BME280;47725;47.912;7.356;2022-08-21T14:56:49;99076.42;;;30.57;30.24
61805;BME280;47725;47.912;7.356;2022-08-21T15:00:50;99071.77;;;30.52;30.70
61805;BME280;47725;47.912;7.356;2022-08-21T15:04:49;99067.66;;;30.49;30.62
61805;BME280;47725;47.912;7.356;2022-08-21T15:08:49;99064.12;;;30.45;30.36
61805;BME280;47725;47.912;7.356;2022-08-21T15:12:49;99061.14;;;30.42;30.92
61805;BME280;47725;47.912;7.356;2022-08-21T15:16:49;99058.15;;;30.37;30.41
61805;BME280;47725;47.912;7.356;2022-08-21T15:20:49;99055.60;;;30.30;31.12
61805;BME280;47725;47.912;7.356;2022-08-21T15:24:49;99052.88;;;30.24;31.42
61805;BME280;47725;47.912;7.356;2022-08-21T15:28:49;99051.74;;;30.18;31.52
61805;BME280;47725;47.912;7.356;2022-08-21T15:32:49;99049.70;;;30.14;32.10
61805;BME280;47725;47.912;7.356;2022-08-21T15:36:49;99045.97;;;30.10;31.76
61805;BME280;47725;47.912;7.356;2022-08-21T15:40:49;99042.21;;;30.05;31.30
61805;BME280;47725;47.912;7.356;2022-08-21T15:44:49;99039.06;;;30.01;31.02
61805;BME280;47725;47.912;7.356;2022-08-21T15:48:49;99033.98;;;29.97;31.89
61805;BME280;47725;47.912;7.356;2022-08-21T15:52:49;99029.11;;;29.94;32.04
61805;BME280;47725;47.912;7.356;2022-08-21T15:56:49;99024.25;;;29.92;31.73
61805;BME280;47725;47.912;7.356;2022-08-21T16:00:49;99021.70;;;29.89;32.42
61805;BME280;47725;47.912;7.356;2022-08-21T16:04:49;99020.33;;;29.85;32.47
61805;BME280;47725;47.912;7.356;2022-08-21T16:08:49;99019.90;;;29.81;32.57
61805;BME280;47725;47.912;7.356;2022-08-21T16:12:59;99020.48;;;29.76;32.34
61805;BME280;47725;47.912;7.356;2022-08-21T16:16:49;99021.45;;;29.72;32.38
61805;BME280;47725;47.912;7.356;2022-08-21T16:20:49;99022.33;;;29.68;32.49
61805;BME280;47725;47.912;7.356;2022-08-21T16:24:49;99022.13;;;29.62;32.65
61805;BME280;47725;47.912;7.356;2022-08-21T16:28:49;99020.82;;;29.56;33.02
61805;BME280;47725;47.912;7.356;2022-08-21T16:32:49;99019.84;;;29.50;33.81
61805;BME280;47725;47.912;7.356;2022-08-21T16:36:49;99018.47;;;29.45;33.19
61805;BME280;47725;47.912;7.356;2022-08-21T16:40:49;99016.33;;;29.40;33.21
61805;BME280;47725;47.912;7.356;2022-08-21T16:44:49;99013.75;;;29.35;33.28
61805;BME280;47725;47.912;7.356;2022-08-21T16:48:49;99011.03;;;29.30;33.52
61805;BME280;47725;47.912;7.356;2022-08-21T16:52:49;99009.06;;;29.25;33.77
61805;BME280;47725;47.912;7.356;2022-08-21T16:56:49;99006.91;;;29.20;33.68
61805;BME280;47725;47.912;7.356;2022-08-21T17:00:49;99004.38;;;29.13;33.66
61805;BME280;47725;47.912;7.356;2022-08-21T17:04:49;99001.98;;;29.07;34.07
61805;BME280;47725;47.912;7.356;2022-08-21T17:08:49;98999.88;;;28.99;34.06
61805;BME280;47725;47.912;7.356;2022-08-21T17:12:51;98998.47;;;28.91;34.16
61805;BME280;47725;47.912;7.356;2022-08-21T17:16:50;98997.94;;;28.83;34.56
61805;BME280;47725;47.912;7.356;2022-08-21T17:20:49;98997.49;;;28.74;34.60
61805;BME280;47725;47.912;7.356;2022-08-21T17:24:49;98998.13;;;28.65;34.98
61805;BME280;47725;47.912;7.356;2022-08-21T17:28:49;98998.74;;;28.55;34.56
61805;BME280;47725;47.912;7.356;2022-08-21T17:32:50;98999.37;;;28.45;34.63
61805;BME280;47725;47.912;7.356;2022-08-21T17:36:49;99000.92;;;28.36;34.98
61805;BME280;47725;47.912;7.356;2022-08-21T17:40:49;99002.12;;;28.27;34.97
61805;BME280;47725;47.912;7.356;2022-08-21T17:44:49;99003.91;;;28.18;35.14
61805;BME280;47725;47.912;7.356;2022-08-21T17:48:49;99003.71;;;28.10;35.23
61805;BME280;47725;47.912;7.356;2022-08-21T17:52:49;99002.84;;;28.03;35.43
61805;BME280;47725;47.912;7.356;2022-08-21T17:56:49;99002.53;;;27.95;35.51
61805;BME280;47725;47.912;7.356;2022-08-21T18:00:49;99002.75;;;27.87;35.16
61805;BME280;47725;47.912;7.356;2022-08-21T18:04:49;99003.13;;;27.79;35.13
61805;BME280;47725;47.912;7.356;2022-08-21T18:08:49;99005.14;;;27.70;35.36
61805;BME280;47725;47.912;7.356;2022-08-21T18:12:49;99007.11;;;27.62;35.85
61805;BME280;47725;47.912;7.356;2022-08-21T18:16:49;99008.81;;;27.55;35.92
61805;BME280;47725;47.912;7.356;2022-08-21T18:20:49;99009.56;;;27.45;36.03
61805;BME280;47725;47.912;7.356;2022-08-21T18:24:49;99010.46;;;27.34;36.08
61805;BME280;47725;47.912;7.356;2022-08-21T18:28:49;99011.77;;;27.20;36.61
61805;BME280;47725;47.912;7.356;2022-08-21T18:32:49;99012.33;;;27.06;36.86
61805;BME280;47725;47.912;7.356;2022-08-21T18:36:49;99013.73;;;26.93;37.13
61805;BME280;47725;47.912;7.356;2022-08-21T18:40:50;99015.82;;;26.81;37.92
61805;BME280;47725;47.912;7.356;2022-08-21T18:44:49;99017.52;;;26.70;38.39
61805;BME280;47725;47.912;7.356;2022-08-21T18:48:49;99019.17;;;26.58;38.62
61805;BME280;47725;47.912;7.356;2022-08-21T18:52:49;99021.52;;;26.48;38.69
61805;BME280;47725;47.912;7.356;2022-08-21T18:56:49;99023.08;;;26.38;38.86
61805;BME280;47725;47.912;7.356;2022-08-21T19:00:49;99025.75;;;26.28;39.22
61805;BME280;47725;47.912;7.356;2022-08-21T19:04:49;99028.59;;;26.17;39.84
61805;BME280;47725;47.912;7.356;2022-08-21T19:08:49;99031.41;;;26.06;40.31
61805;BME280;47725;47.912;7.356;2022-08-21T19:12:49;99035.08;;;25.97;40.60
61805;BME280;47725;47.912;7.356;2022-08-21T19:16:49;99038.19;;;25.89;41.08
61805;BME280;47725;47.912;7.356;2022-08-21T19:20:49;99041.49;;;25.81;41.51
61805;BME280;47725;47.912;7.356;2022-08-21T19:24:49;99044.34;;;25.72;41.93
61805;BME280;47725;47.912;7.356;2022-08-21T19:28:50;99045.94;;;25.63;42.21
61805;BME280;47725;47.912;7.356;2022-08-21T19:32:49;99047.61;;;25.53;42.33
61805;BME280;47725;47.912;7.356;2022-08-21T19:36:49;99048.61;;;25.44;42.50
61805;BME280;47725;47.912;7.356;2022-08-21T19:40:49;99049.83;;;25.36;42.65
61805;BME280;47725;47.912;7.356;2022-08-21T19:44:49;99050.50;;;25.28;43.09
61805;BME280;47725;47.912;7.356;2022-08-21T19:48:49;99050.83;;;25.19;43.10
61805;BME280;47725;47.912;7.356;2022-08-21T19:52:49;99051.83;;;25.10;43.22
61805;BME280;47725;47.912;7.356;2022-08-21T19:56:49;99053.31;;;25.01;43.88
61805;BME280;47725;47.912;7.356;2022-08-21T20:00:49;99055.00;;;24.93;44.30
61805;BME280;47725;47.912;7.356;2022-08-21T20:04:49;99056.11;;;24.85;44.55
61805;BME280;47725;47.912;7.356;2022-08-21T20:08:49;99056.05;;;24.77;44.70
61805;BME280;47725;47.912;7.356;2022-08-21T20:12:49;99055.25;;;24.69;44.98
61805;BME280;47725;47.912;7.356;2022-08-21T20:16:49;99054.40;;;24.61;44.88
61805;BME280;47725;47.912;7.356;2022-08-21T20:20:49;99052.48;;;24.53;44.96
61805;BME280;47725;47.912;7.356;2022-08-21T20:24:49;99050.20;;;24.46;44.97
61805;BME280;47725;47.912;7.356;2022-08-21T20:28:49;99048.07;;;24.40;45.07
61805;BME280;47725;47.912;7.356;2022-08-21T20:32:49;99047.20;;;24.32;45.22
61805;BME280;47725;47.912;7.356;2022-08-21T20:36:49;99045.76;;;24.26;45.28
61805;BME280;47725;47.912;7.356;2022-08-21T20:40:49;99044.08;;;24.20;45.35
61805;BME280;47725;47.912;7.356;2022-08-21T20:44:50;99042.56;;;24.14;45.69
61805;BME280;47725;47.912;7.356;2022-08-21T20:48:49;99041.67;;;24.09;45.65
61805;BME280;47725;47.912;7.356;2022-08-21T20:52:49;99041.19;;;24.05;45.69
61805;BME280;47725;47.912;7.356;2022-08-21T20:56:53;99041.30;;;24.00;45.62
61805;BME280;47725;47.912;7.356;2022-08-21T21:00:49;99040.87;;;23.98;45.56
61805;BME280;47725;47.912;7.356;2022-08-21T21:04:58;99040.40;;;23.95;46.63
61805;BME280;47725;47.912;7.356;2022-08-21T21:08:49;99039.25;;;23.91;47.19
61805;BME280;47725;47.912;7.356;2022-08-21T21:12:49;99039.26;;;23.86;47.59
61805;BME280;47725;47.912;7.356;2022-08-21T21:16:52;99040.08;;;23.81;47.93
61805;BME280;47725;47.912;7.356;2022-08-21T21:20:50;99040.35;;;23.78;47.93
61805;BME280;47725;47.912;7.356;2022-08-21T21:24:50;99041.08;;;23.74;48.63
61805;BME280;47725;47.912;7.356;2022-08-21T21:28:50;99044.61;;;23.70;48.84
61805;BME280;47725;47.912;7.356;2022-08-21T21:32:49;99047.71;;;23.66;48.99
61805;BME280;47725;47.912;7.356;2022-08-21T21:36:56;99051.36;;;23.62;49.35
61805;BME280;47725;47.912;7.356;2022-08-21T21:40:55;99054.47;;;23.56;49.44
61805;BME280;47725;47.912;7.356;2022-08-21T21:44:56;99057.40;;;23.49;49.54
61805;BME280;47725;47.912;7.356;2022-08-21T21:49:01;99060.27;;;23.44;49.52